Time;durP1;ratioP1;P1;durP2;ratioP2;P2;SDS_P1;SDS_P2;PMS_P1;PMS_P2;Temp;Humidity;BMP_temperature;BMP_pressure;BME280_temperature;BME280_humidity;BME280_pressure;Samples;Min_cycle;Max_cycle;Signal;HPM_P1;HPM_P2
2022/11/11 00:00:12;;;;;;;6.40;2.22;;;9.60;99.90;;;;;;5096982;28;20562;-88
2022/11/11 00:02:38;;;;;;;10.77;2.53;;;9.40;99.90;;;;;;5094668;28;20038;-89
2022/11/11 00:05:03;;;;;;;10.45;2.67;;;9.40;99.90;;;;;;5094914;28;20028;-89
2022/11/11 00:07:29;;;;;;;10.30;2.55;;;9.50;99.90;;;;;;5101994;28;20031;-89
2022/11/11 00:09:55;;;;;;;12.55;3.70;;;9.50;99.90;;;;;;5097022;27;20062;-88
2022/11/11 00:12:21;;;;;;;6.97;2.38;;;9.40;99.90;;;;;;5098834;28;20114;-88
2022/11/11 00:14:47;;;;;;;9.30;2.28;;;9.40;99.90;;;;;;5102256;27;20026;-89
2022/11/11 00:25:25;;;;;;;11.13;3.17;;;9.60;99.90;;;;;;5103944;28;20073;-89
2022/11/11 00:27:52;;;;;;;12.73;3.67;;;9.60;99.90;;;;;;5103923;28;20055;-84
2022/11/11 00:30:17;;;;;;;10.30;2.67;;;9.60;99.90;;;;;;5107493;27;20027;-88
2022/11/11 00:32:43;;;;;;;5.97;1.70;;;9.60;99.90;;;;;;5104507;27;20089;-88
2022/11/11 00:37:53;;;;;;;10.63;2.53;;;9.50;99.90;;;;;;5103626;28;20043;-87
2022/11/11 00:40:19;;;;;;;18.05;2.72;;;9.40;99.90;;;;;;5110176;28;20019;-88
2022/11/11 00:42:44;;;;;;;18.25;3.10;;;9.30;99.90;;;;;;5104483;27;20468;-88
2022/11/11 00:45:11;;;;;;;8.45;2.50;;;9.20;99.90;;;;;;5100719;28;20374;-88
2022/11/11 00:53:16;;;;;;;11.63;2.50;;;9.10;99.90;;;;;;5095225;28;20181;-88
2022/11/11 00:55:42;;;;;;;16.67;3.03;;;9.00;99.90;;;;;;5099373;28;20028;-89
2022/11/11 00:58:07;;;;;;;6.07;2.38;;;9.20;99.90;;;;;;5104546;28;20619;-88
2022/11/11 01:00:33;;;;;;;5.53;2.17;;;9.20;99.90;;;;;;5105080;27;20483;-88
2022/11/11 01:02:59;;;;;;;8.27;2.60;;;9.30;99.90;;;;;;5100744;28;20030;-88
2022/11/11 01:05:25;;;;;;;10.32;3.13;;;9.30;99.90;;;;;;5104404;28;20032;-89
2022/11/11 01:07:51;;;;;;;8.02;2.50;;;9.30;99.90;;;;;;5103201;28;20027;-86
2022/11/11 01:10:36;;;;;;;8.10;2.08;;;9.20;99.90;;;;;;5103439;27;20460;-88
2022/11/11 01:13:12;;;;;;;15.13;2.85;;;9.20;99.90;;;;;;5108328;27;20038;-89
2022/11/11 01:15:42;;;;;;;10.45;2.15;;;9.20;99.90;;;;;;5107884;28;20042;-88
2022/11/11 01:18:09;;;;;;;10.10;2.47;;;9.10;99.90;;;;;;5100408;28;20047;-87
2022/11/11 01:20:36;;;;;;;6.32;2.55;;;9.10;99.90;;;;;;5105646;27;20023;-88
2022/11/11 01:23:03;;;;;;;14.82;2.67;;;9.00;99.90;;;;;;5101482;28;20029;-88
2022/11/11 01:25:32;;;;;;;11.70;2.53;;;9.00;99.90;;;;;;5103636;28;20037;-89
2022/11/11 01:27:58;;;;;;;13.23;2.88;;;9.00;99.90;;;;;;5095487;28;20120;-88
2022/11/11 01:30:23;;;;;;;10.32;2.85;;;8.90;99.90;;;;;;5104929;27;20051;-90
2022/11/11 01:32:49;;;;;;;10.05;2.03;;;9.00;99.90;;;;;;5099916;27;20031;-90
2022/11/11 01:35:15;;;;;;;7.15;2.22;;;9.00;99.90;;;;;;5103202;28;20441;-88
2022/11/11 01:37:40;;;;;;;8.23;2.17;;;9.00;99.90;;;;;;5100189;28;20474;-87
2022/11/11 01:40:07;;;;;;;9.48;2.50;;;9.10;99.90;;;;;;5098945;28;20054;-90
2022/11/11 01:43:05;;;;;;;10.88;2.33;;;9.20;99.90;;;;;;5098494;28;20072;-89
2022/11/11 01:45:54;;;;;;;11.30;2.92;;;9.20;99.90;;;;;;5085035;28;20156;-88
2022/11/11 01:51:21;;;;;;;11.20;2.13;;;9.50;99.90;;;;;;5094236;28;20051;-90
2022/11/11 01:53:53;;;;;;;12.88;3.63;;;9.70;99.90;;;;;;5115606;28;20083;-86
2022/11/11 01:56:19;;;;;;;9.70;2.20;;;9.80;99.90;;;;;;5102187;28;20110;-87
2022/11/11 01:58:45;;;;;;;10.70;2.42;;;10.00;99.90;;;;;;5105999;28;20157;-87
2022/11/11 02:01:10;;;;;;;4.95;1.80;;;10.10;99.90;;;;;;5103818;28;20028;-89
2022/11/11 02:03:39;;;;;;;3.67;1.52;;;10.20;99.90;;;;;;5101121;28;20763;-90
2022/11/11 02:06:10;;;;;;;7.25;2.05;;;10.20;99.90;;;;;;5112858;27;20030;-83
2022/11/11 02:08:36;;;;;;;10.73;2.03;;;10.10;99.90;;;;;;5108901;28;20032;-84
2022/11/11 02:11:11;;;;;;;6.63;2.00;;;10.10;99.90;;;;;;5111453;27;20383;-92
2022/11/11 02:16:24;;;;;;;6.43;1.80;;;10.10;99.90;;;;;;5100581;27;20046;-92
2022/11/11 02:18:50;;;;;;;7.22;1.70;;;10.20;99.90;;;;;;5111334;28;20055;-87
2022/11/11 02:21:29;;;;;;;8.48;3.22;;;10.30;99.90;;;;;;5107817;27;20396;-88
2022/11/11 02:24:00;;;;;;;10.05;1.60;;;10.20;99.90;;;;;;5098587;28;20038;-89
2022/11/11 02:26:26;;;;;;;6.05;1.63;;;10.30;99.90;;;;;;5109024;27;20152;-89
2022/11/11 02:28:53;;;;;;;8.23;2.13;;;10.30;99.90;;;;;;5105177;28;20035;-87
2022/11/11 02:31:21;;;;;;;3.05;1.35;;;10.40;99.90;;;;;;5104761;28;20377;-89
2022/11/11 02:33:47;;;;;;;10.95;2.05;;;10.40;99.90;;;;;;5104261;28;20024;-87
2022/11/11 02:36:15;;;;;;;10.07;1.95;;;10.50;99.90;;;;;;5109389;28;20038;-88
2022/11/11 02:38:42;;;;;;;18.00;3.35;;;10.60;99.90;;;;;;5105436;28;20040;-89
2022/11/11 02:43:51;;;;;;;4.28;1.83;;;10.60;99.90;;;;;;5106573;27;20058;-83
2022/11/11 02:46:17;;;;;;;11.32;1.80;;;10.60;99.90;;;;;;5099283;27;20028;-93
2022/11/11 02:48:43;;;;;;;3.58;1.80;;;10.60;99.90;;;;;;5080911;28;20053;-90
2022/11/11 02:51:08;;;;;;;7.90;1.67;;;10.70;99.90;;;;;;5091888;28;20016;-88
2022/11/11 02:53:34;;;;;;;4.30;2.13;;;10.70;99.90;;;;;;5079999;28;20472;-93
2022/11/11 02:55:59;;;;;;;5.05;1.33;;;10.80;99.90;;;;;;5081346;28;20111;-92
2022/11/11 02:58:25;;;;;;;5.07;1.80;;;10.80;99.90;;;;;;5086918;28;20509;-91
2022/11/11 03:00:51;;;;;;;9.48;1.42;;;10.80;99.90;;;;;;5076184;28;20093;-85
2022/11/11 03:03:16;;;;;;;4.80;1.45;;;10.90;99.90;;;;;;5084221;28;20474;-90
2022/11/11 03:05:42;;;;;;;8.45;1.58;;;10.90;99.90;;;;;;5085195;28;20024;-85
2022/11/11 03:08:08;;;;;;;5.43;1.83;;;11.00;99.90;;;;;;5089115;28;20043;-91
2022/11/11 03:10:33;;;;;;;3.80;1.48;;;11.00;99.90;;;;;;5080636;28;20522;-88
2022/11/11 03:12:59;;;;;;;8.13;2.15;;;11.10;99.90;;;;;;5089429;28;20032;-93
2022/11/11 03:15:24;;;;;;;5.00;2.20;;;11.10;99.90;;;;;;5084002;28;20385;-90
2022/11/11 03:17:50;;;;;;;12.07;2.00;;;11.20;99.90;;;;;;5083669;28;20041;-89
2022/11/11 03:23:07;;;;;;;4.45;1.60;;;11.10;99.90;;;;;;5090625;28;20039;-90
2022/11/11 03:25:38;;;;;;;5.15;1.60;;;11.10;99.90;;;;;;5089333;28;20468;-90
2022/11/11 03:28:16;;;;;;;4.53;1.50;;;11.10;99.90;;;;;;5082451;28;20036;-91
2022/11/11 03:30:44;;;;;;;6.72;1.77;;;11.10;99.90;;;;;;5086905;28;20040;-93
2022/11/11 03:33:11;;;;;;;11.00;1.88;;;11.00;99.90;;;;;;5085314;28;20031;-87
2022/11/11 03:35:37;;;;;;;8.70;2.00;;;11.00;99.90;;;;;;5087026;28;20048;-90
2022/11/11 03:38:23;;;;;;;4.38;1.48;;;11.00;99.90;;;;;;5083697;28;20441;-96
2022/11/11 03:40:50;;;;;;;;;;;11.00;99.90;;;;;;5079496;28;20059;-94
2022/11/11 03:43:18;;;;;;;6.05;1.75;;;11.00;99.90;;;;;;5089091;28;19912;-87
2022/11/11 03:45:44;;;;;;;9.18;1.98;;;11.00;99.90;;;;;;5076164;28;20111;-80
2022/11/11 03:48:11;;;;;;;7.15;1.70;;;11.00;99.90;;;;;;5088153;28;20138;-91
2022/11/11 03:50:37;;;;;;;7.15;1.70;;;11.00;99.90;;;;;;5102476;27;20056;-88
2022/11/11 03:53:03;;;;;;;7.43;1.88;;;11.10;99.90;;;;;;5101414;27;20017;-89
2022/11/11 03:55:29;;;;;;;11.82;1.77;;;11.00;99.90;;;;;;5100703;27;20052;-87
2022/11/11 03:57:55;;;;;;;1.60;1.20;;;11.00;99.90;;;;;;5100057;28;20032;-89
2022/11/11 04:00:24;;;;;;;6.10;1.73;;;11.10;99.90;;;;;;5105739;27;21497;-86
2022/11/11 04:11:29;;;;;;;4.10;1.50;;;11.20;99.90;;;;;;5100117;28;20438;-88
2022/11/11 04:16:43;;;;;;;4.82;1.48;;;11.30;99.90;;;;;;5107269;27;20145;-87
2022/11/11 04:21:53;;;;;;;3.60;1.33;;;11.20;99.90;;;;;;5108418;27;20518;-86
2022/11/11 04:27:10;;;;;;;6.55;1.55;;;11.30;99.90;;;;;;5107660;27;20092;-88
2022/11/11 04:29:35;;;;;;;4.80;1.63;;;11.30;99.90;;;;;;5106091;28;20081;-87
2022/11/11 04:34:56;;;;;;;11.65;1.73;;;11.20;99.90;;;;;;5109556;28;20131;-86
2022/11/11 04:37:23;;;;;;;6.22;2.35;;;11.20;99.90;;;;;;5101199;28;20062;-90
2022/11/11 04:42:33;;;;;;;5.20;1.67;;;11.10;99.90;;;;;;5098783;27;20573;-89
2022/11/11 04:48:05;;;;;;;5.68;1.65;;;11.00;99.90;;;;;;5100812;28;20090;-89
2022/11/11 04:50:35;;;;;;;8.15;1.67;;;11.00;99.90;;;;;;5101872;28;20062;-87
2022/11/11 04:53:01;;;;;;;5.95;1.52;;;11.00;99.90;;;;;;5097809;27;20489;-87
2022/11/11 04:58:13;;;;;;;8.65;2.05;;;10.80;99.90;;;;;;5099476;28;20503;-87
2022/11/11 05:00:39;;;;;;;10.18;1.92;;;10.70;99.90;;;;;;5104086;27;20068;-88
2022/11/11 05:03:23;;;;;;;9.77;1.95;;;10.70;99.90;;;;;;5103284;28;20434;-87
2022/11/11 05:08:56;;;;;;;7.35;1.70;;;10.60;99.90;;;;;;5076066;28;20050;-88
2022/11/11 05:11:33;;;;;;;5.47;1.90;;;10.60;99.90;;;;;;5102667;28;20031;-85
2022/11/11 05:22:30;;;;;;;7.88;1.90;;;10.50;99.90;;;;;;5102940;28;20388;-87
2022/11/11 05:27:40;;;;;;;5.25;1.63;;;10.50;99.90;;;;;;5096764;28;20057;-87
2022/11/11 05:30:08;;;;;;;5.25;1.35;;;10.50;99.90;;;;;;5097007;28;20472;-87
2022/11/11 05:32:33;;;;;;;3.72;1.45;;;10.50;99.90;;;;;;5101241;28;20020;-87
2022/11/11 05:34:59;;;;;;;4.72;1.58;;;10.40;99.90;;;;;;5103825;28;20024;-87
2022/11/11 05:37:25;;;;;;;5.20;1.60;;;10.40;99.90;;;;;;5099044;28;20430;-88
2022/11/11 05:39:50;;;;;;;5.50;1.75;;;10.40;99.90;;;;;;5100148;28;20503;-87
2022/11/11 05:42:16;;;;;;;4.85;1.90;;;10.40;99.90;;;;;;5102418;28;20736;-88
2022/11/11 05:44:42;;;;;;;4.63;1.90;;;10.40;99.90;;;;;;5099024;28;20023;-90
2022/11/11 05:47:08;;;;;;;7.55;2.17;;;10.30;99.90;;;;;;5101776;28;20031;-89
2022/11/11 05:49:34;;;;;;;3.67;1.65;;;10.30;99.90;;;;;;5097374;28;20047;-90
2022/11/11 05:52:00;;;;;;;6.95;2.22;;;10.30;99.90;;;;;;5092728;28;20035;-85
2022/11/11 05:54:26;;;;;;;9.20;2.53;;;10.20;99.90;;;;;;5098914;28;20035;-89
2022/11/11 05:56:52;;;;;;;5.22;2.13;;;10.20;99.90;;;;;;5099993;28;20031;-86
2022/11/11 05:59:18;;;;;;;9.00;2.70;;;10.10;99.90;;;;;;5097607;28;20031;-84
2022/11/11 06:01:43;;;;;;;4.28;2.15;;;10.00;99.90;;;;;;5098530;28;20395;-90
2022/11/11 06:04:09;;;;;;;12.23;2.30;;;10.00;99.90;;;;;;5099934;28;20023;-87
2022/11/11 06:06:35;;;;;;;7.25;2.08;;;9.90;99.90;;;;;;5101408;28;20031;-86
2022/11/11 06:09:02;;;;;;;7.85;2.30;;;9.90;99.90;;;;;;5096168;28;20035;-88
2022/11/11 06:11:28;;;;;;;6.82;2.33;;;10.00;99.90;;;;;;5096441;28;20024;-90
2022/11/11 06:13:54;;;;;;;10.15;1.80;;;10.10;99.90;;;;;;5095795;28;20028;-89
2022/11/11 06:16:20;;;;;;;4.95;2.17;;;10.10;99.90;;;;;;5096193;28;20035;-86
2022/11/11 06:18:46;;;;;;;4.32;1.73;;;10.20;99.90;;;;;;5096882;28;20116;-90
2022/11/11 06:21:12;;;;;;;7.50;1.98;;;10.20;99.90;;;;;;5091910;28;20080;-90
2022/11/11 06:23:38;;;;;;;4.50;2.22;;;10.20;99.90;;;;;;5095519;28;20036;-88
2022/11/11 06:26:15;;;;;;;6.13;1.80;;;10.10;99.90;;;;;;5096226;28;20040;-82
2022/11/11 06:28:52;;;;;;;9.82;2.35;;;10.10;99.90;;;;;;5097073;28;20051;-87
2022/11/11 06:31:20;;;;;;;6.38;1.83;;;10.20;99.90;;;;;;5096201;28;20426;-89
2022/11/11 06:33:46;;;;;;;7.20;2.95;;;10.30;99.90;;;;;;5098609;28;20055;-94
2022/11/11 06:36:13;;;;;;;6.47;1.80;;;10.30;99.90;;;;;;5099548;28;20071;-89
2022/11/11 06:38:40;;;;;;;6.20;1.80;;;10.30;99.90;;;;;;5095943;28;20039;-90
2022/11/11 06:41:06;;;;;;;9.80;2.13;;;10.30;99.90;;;;;;5099047;28;20039;-88
2022/11/11 06:43:32;;;;;;;4.72;1.60;;;10.30;99.90;;;;;;5092975;28;20036;-90
2022/11/11 06:45:58;;;;;;;6.55;1.55;;;10.30;99.90;;;;;;5096547;28;20040;-92
2022/11/11 06:48:25;;;;;;;5.50;1.77;;;10.30;99.90;;;;;;5095048;28;20055;-89
2022/11/11 06:50:52;;;;;;;6.05;2.30;;;10.30;99.90;;;;;;5102482;28;20042;-92
2022/11/11 06:53:19;;;;;;;7.68;1.92;;;10.30;99.90;;;;;;5100541;28;20023;-88
2022/11/11 06:55:45;;;;;;;3.42;1.42;;;10.30;99.90;;;;;;5103234;28;20036;-82
2022/11/11 06:58:20;;;;;;;5.35;1.83;;;10.30;99.90;;;;;;5100521;28;20187;-87
2022/11/11 07:00:47;;;;;;;7.32;1.95;;;10.30;99.90;;;;;;5105652;28;20399;-88
2022/11/11 07:03:16;;;;;;;6.28;1.77;;;10.40;99.90;;;;;;5099743;28;20039;-88
2022/11/11 07:05:42;;;;;;;7.03;1.77;;;10.40;99.90;;;;;;5098600;28;20032;-88
2022/11/11 07:08:11;;;;;;;4.38;1.85;;;10.50;99.90;;;;;;5100842;28;20498;-90
2022/11/11 07:10:40;;;;;;;8.18;1.77;;;10.50;99.90;;;;;;5096177;28;20114;-89
2022/11/11 07:13:06;;;;;;;4.55;1.75;;;10.50;99.90;;;;;;5106957;28;20023;-86
2022/11/11 07:15:33;;;;;;;5.00;1.70;;;10.60;99.90;;;;;;5094440;28;20036;-88
2022/11/11 07:17:59;;;;;;;4.32;1.90;;;10.60;99.90;;;;;;5094842;28;20028;-89
2022/11/11 07:20:24;;;;;;;4.53;2.13;;;10.70;99.90;;;;;;5099089;28;20450;-89
2022/11/11 07:22:50;;;;;;;6.72;2.50;;;10.70;99.90;;;;;;5098628;28;20028;-88
2022/11/11 07:25:15;;;;;;;4.60;2.05;;;10.60;99.90;;;;;;5094262;28;20032;-88
2022/11/11 07:27:42;;;;;;;3.20;1.90;;;10.60;99.90;;;;;;5097955;28;20043;-88
2022/11/11 07:30:09;;;;;;;5.63;2.20;;;10.60;99.90;;;;;;5090374;28;20035;-87
2022/11/11 07:32:35;;;;;;;6.35;2.00;;;10.60;99.90;;;;;;5090552;28;20391;-86
2022/11/11 07:35:01;;;;;;;4.82;1.80;;;10.60;99.90;;;;;;5091036;28;20036;-90
2022/11/11 07:37:27;;;;;;;5.15;1.80;;;10.60;99.90;;;;;;5097541;28;20156;-89
2022/11/11 07:39:53;;;;;;;6.15;2.17;;;10.60;99.90;;;;;;5098960;28;20024;-89
2022/11/11 07:42:20;;;;;;;9.75;2.10;;;10.60;99.90;;;;;;5099810;28;20122;-85
2022/11/11 07:44:46;;;;;;;6.32;2.00;;;10.60;99.90;;;;;;5097786;28;20027;-88
2022/11/11 07:47:11;;;;;;;8.27;2.85;;;10.60;99.90;;;;;;5100017;28;20038;-88
2022/11/11 07:49:37;;;;;;;7.05;3.38;;;10.60;99.90;;;;;;5101144;28;20115;-87
2022/11/11 07:52:03;;;;;;;13.00;4.57;;;10.60;99.90;;;;;;5097262;28;20024;-88
2022/11/11 07:54:28;;;;;;;6.95;2.92;;;10.60;99.90;;;;;;5096315;28;20028;-88
2022/11/11 07:56:54;;;;;;;6.30;2.20;;;10.60;99.90;;;;;;5093196;28;20111;-89
2022/11/11 07:59:19;;;;;;;6.70;2.55;;;10.60;99.90;;;;;;5099769;28;20035;-86
2022/11/11 08:01:45;;;;;;;9.55;2.55;;;10.60;99.90;;;;;;5099088;28;20563;-88
2022/11/11 08:04:11;;;;;;;7.45;2.65;;;10.60;99.90;;;;;;5086658;28;20097;-90
2022/11/11 08:06:36;;;;;;;4.50;2.00;;;10.60;99.90;;;;;;5096984;28;20073;-88
2022/11/11 08:09:02;;;;;;;6.88;2.35;;;10.70;99.90;;;;;;5103591;28;20044;-88
2022/11/11 08:14:12;;;;;;;3.17;1.50;;;10.90;99.90;;;;;;5090600;28;20070;-89
2022/11/11 08:16:38;;;;;;;9.85;2.03;;;11.00;99.90;;;;;;5099392;28;20441;-89
2022/11/11 08:19:04;;;;;;;6.47;1.98;;;11.10;99.90;;;;;;5104780;28;20032;-90
2022/11/11 08:21:29;;;;;;;9.55;1.58;;;11.20;99.90;;;;;;5108439;28;20042;-88
2022/11/11 08:23:55;;;;;;;4.25;1.58;;;11.30;99.90;;;;;;5107680;28;20383;-87
2022/11/11 08:26:22;;;;;;;2.72;1.13;;;11.50;99.90;;;;;;5103086;28;20024;-88
2022/11/11 08:28:50;;;;;;;4.22;1.27;;;11.60;99.90;;;;;;5101855;28;20035;-87
2022/11/11 08:31:16;;;;;;;4.10;1.55;;;11.70;99.90;;;;;;5102765;28;20066;-87
2022/11/11 08:33:41;;;;;;;5.47;1.65;;;11.70;99.90;;;;;;5096206;28;20063;-83
2022/11/11 08:36:10;;;;;;;3.08;1.15;;;11.80;99.90;;;;;;5092852;28;20112;-86
2022/11/11 08:38:36;;;;;;;1.95;1.20;;;11.80;99.90;;;;;;5101082;28;20474;-87
2022/11/11 08:41:03;;;;;;;4.00;1.20;;;12.00;99.90;;;;;;5097769;28;20024;-88
2022/11/11 08:43:31;;;;;;;5.05;1.50;;;12.10;99.90;;;;;;5098620;28;20373;-88
2022/11/11 08:45:57;;;;;;;4.90;1.30;;;12.10;99.90;;;;;;5098765;28;20024;-91
2022/11/11 08:48:23;;;;;;;5.43;1.38;;;12.30;99.90;;;;;;5101110;28;20511;-93
2022/11/11 08:50:51;;;;;;;3.97;1.27;;;12.30;99.90;;;;;;5104629;28;20032;-82
2022/11/11 08:53:17;;;;;;;8.82;1.83;;;12.50;99.90;;;;;;5101660;28;20128;-87
2022/11/11 08:55:43;;;;;;;5.60;1.33;;;12.60;99.90;;;;;;5091185;28;20058;-86
2022/11/11 08:58:10;;;;;;;4.28;1.33;;;12.70;99.90;;;;;;5102930;28;20031;-87
2022/11/11 09:00:35;;;;;;;3.38;1.30;;;12.70;99.90;;;;;;5097125;28;20028;-85
2022/11/11 09:03:03;;;;;;;5.47;1.52;;;12.90;99.90;;;;;;5097801;28;20114;-85
2022/11/11 09:05:29;;;;;;;4.97;1.48;;;12.90;99.90;;;;;;5098270;28;20028;-86
2022/11/11 09:07:55;;;;;;;6.70;1.63;;;12.90;99.90;;;;;;5102832;28;20036;-86
2022/11/11 09:10:21;;;;;;;3.53;1.25;;;13.00;99.90;;;;;;5089095;28;20023;-85
2022/11/11 09:12:47;;;;;;;5.25;1.40;;;12.90;99.90;;;;;;5089939;28;20030;-85
2022/11/11 09:15:14;;;;;;;5.88;1.50;;;13.00;99.90;;;;;;5094388;28;20468;-86
2022/11/11 09:17:46;;;;;;;2.38;1.00;;;13.00;99.90;;;;;;5101444;28;20089;-85
2022/11/11 09:20:12;;;;;;;3.25;1.10;;;13.00;99.90;;;;;;5105616;28;20031;-86
2022/11/11 09:22:48;;;;;;;3.28;1.05;;;13.00;99.90;;;;;;5092653;28;20039;-85
2022/11/11 09:25:14;;;;;;;4.70;1.17;;;13.00;99.90;;;;;;5104058;28;20035;-87
2022/11/11 09:27:41;;;;;;;3.33;1.10;;;13.00;99.90;;;;;;5098712;28;20027;-85
2022/11/11 09:30:08;;;;;;;4.07;1.35;;;13.10;99.90;;;;;;5098013;28;20031;-84
2022/11/11 09:32:33;;;;;;;5.95;1.40;;;13.10;99.90;;;;;;5101864;28;20026;-84
2022/11/11 09:35:00;;;;;;;5.82;0.95;;;13.10;99.90;;;;;;5092305;28;20028;-82
2022/11/11 09:37:26;;;;;;;1.77;1.00;;;13.20;99.90;;;;;;5097202;28;20165;-86
2022/11/11 09:39:54;;;;;;;4.82;1.58;;;13.20;99.90;;;;;;5099248;28;20035;-85
2022/11/11 09:42:30;;;;;;;6.43;1.48;;;13.30;99.90;;;;;;5093711;28;20030;-84
2022/11/11 09:45:15;;;;;;;4.32;1.52;;;13.30;99.90;;;;;;5098260;28;20030;-84
2022/11/11 09:47:55;;;;;;;2.80;1.10;;;13.30;99.90;;;;;;5102757;28;20044;-85
2022/11/11 09:50:24;;;;;;;2.10;0.90;;;13.30;99.90;;;;;;5096420;28;20024;-85
2022/11/11 09:53:16;;;;;;;2.67;0.93;;;13.40;99.90;;;;;;5106993;28;20019;-84
2022/11/11 09:56:06;;;;;;;5.63;1.10;;;13.50;99.90;;;;;;5098255;28;20039;-85
2022/11/11 09:58:49;;;;;;;3.50;1.00;;;13.60;99.90;;;;;;5099493;28;20051;-85
2022/11/11 10:01:28;;;;;;;9.77;1.40;;;13.60;99.90;;;;;;5094386;28;20038;-85
2022/11/11 10:04:35;;;;;;;1.77;0.68;;;13.70;99.90;;;;;;5099620;28;20028;-85
2022/11/11 10:07:10;;;;;;;3.22;1.00;;;13.70;99.90;;;;;;5064929;28;20046;-84
2022/11/11 10:10:07;;;;;;;4.78;1.33;;;13.70;99.90;;;;;;5095112;28;20019;-84
2022/11/11 10:12:39;;;;;;;1.50;1.00;;;13.80;99.90;;;;;;5083560;28;20120;-85
2022/11/11 10:15:11;;;;;;;5.15;1.20;;;13.80;99.90;;;;;;5105303;28;20027;-85
2022/11/11 10:17:41;;;;;;;8.55;0.93;;;13.80;99.90;;;;;;5095298;28;20024;-83
2022/11/11 10:20:19;;;;;;;3.35;1.30;;;14.00;99.90;;;;;;5102809;28;20031;-85
2022/11/11 10:22:47;;;;;;;3.25;1.33;;;14.10;99.90;;;;;;5097498;28;20024;-84
2022/11/11 10:25:12;;;;;;;3.47;1.30;;;14.10;99.90;;;;;;5099965;28;20028;-84
2022/11/11 10:27:43;;;;;;;3.58;1.13;;;14.30;99.90;;;;;;5098637;28;20115;-87
2022/11/11 10:30:17;;;;;;;1.67;1.00;;;14.40;99.90;;;;;;5101617;28;20031;-82
2022/11/11 10:32:48;;;;;;;2.63;1.10;;;14.40;99.90;;;;;;5096375;28;20031;-85
2022/11/11 10:35:16;;;;;;;5.97;0.90;;;14.40;99.90;;;;;;5100952;28;20028;-85
2022/11/11 10:37:42;;;;;;;1.90;0.95;;;14.40;99.90;;;;;;5094839;28;20488;-90
2022/11/11 10:40:16;;;;;;;3.75;1.45;;;14.40;99.90;;;;;;5098391;28;20039;-86
2022/11/11 10:42:42;;;;;;;2.00;0.98;;;14.60;99.90;;;;;;5109503;28;20067;-85
2022/11/11 10:45:42;;;;;;;1.55;0.82;;;14.70;99.90;;;;;;5100775;28;20024;-85
2022/11/11 10:48:37;;;;;;;5.65;1.05;;;14.70;99.90;;;;;;5095459;28;20051;-84
2022/11/11 10:51:22;;;;;;;1.70;0.80;;;14.90;99.90;;;;;;5087961;28;20540;-87
2022/11/11 10:54:00;;;;;;;2.25;0.80;;;14.90;99.90;;;;;;5098809;28;20119;-86
2022/11/11 10:57:01;;;;;;;1.38;0.70;;;14.90;99.90;;;;;;5105850;28;20101;-85
2022/11/11 10:59:34;;;;;;;1.85;0.75;;;14.90;99.90;;;;;;5103252;28;20039;-85
2022/11/11 11:02:09;;;;;;;4.10;0.85;;;14.90;99.90;;;;;;5108926;28;20413;-84
2022/11/11 11:04:49;;;;;;;3.63;0.90;;;14.90;99.90;;;;;;5091296;28;20489;-85
2022/11/11 11:07:21;;;;;;;8.18;0.85;;;14.90;99.90;;;;;;5098453;28;20383;-84
2022/11/11 11:09:50;;;;;;;4.78;0.65;;;15.00;98.50;;;;;;5097999;28;20092;-87
2022/11/11 11:12:23;;;;;;;0.93;0.75;;;15.00;99.30;;;;;;5097080;28;20539;-85
2022/11/11 11:14:55;;;;;;;3.30;0.98;;;15.10;95.40;;;;;;5102030;28;20422;-81
2022/11/11 11:17:44;;;;;;;6.10;1.10;;;15.20;96.50;;;;;;5102164;28;20080;-86
2022/11/11 11:20:15;;;;;;;6.63;1.00;;;15.20;97.80;;;;;;5101463;28;20221;-84
2022/11/11 11:22:52;;;;;;;2.42;0.80;;;15.30;93.80;;;;;;5099928;28;20019;-84
2022/11/11 11:25:20;;;;;;;3.13;0.95;;;15.40;91.00;;;;;;5094877;28;20088;-85
2022/11/11 11:27:48;;;;;;;1.67;0.80;;;15.50;89.80;;;;;;5096886;28;20040;-84
2022/11/11 11:30:17;;;;;;;1.33;0.63;;;15.60;84.20;;;;;;5103129;28;20023;-84
2022/11/11 11:32:56;;;;;;;2.30;0.70;;;15.70;84.40;;;;;;5098099;28;20441;-84
2022/11/11 11:35:35;;;;;;;3.22;0.45;;;15.80;78.10;;;;;;5101384;28;20059;-84
2022/11/11 11:38:01;;;;;;;3.08;0.80;;;15.90;69.10;;;;;;5095625;28;20123;-85
2022/11/11 11:40:51;;;;;;;1.77;0.60;;;16.10;66.80;;;;;;5102316;28;20034;-86
2022/11/11 11:43:25;;;;;;;1.23;0.60;;;16.00;69.60;;;;;;5100488;28;20481;-84
2022/11/11 11:45:58;;;;;;;0.80;0.50;;;16.10;70.30;;;;;;5096903;27;20523;-84
2022/11/11 11:48:42;;;;;;;0.40;0.40;;;16.10;72.80;;;;;;5093759;28;20048;-84
2022/11/11 11:51:23;;;;;;;1.58;0.45;;;16.00;70.60;;;;;;5101183;27;20032;-84
2022/11/11 11:54:22;;;;;;;1.38;0.47;;;15.90;70.50;;;;;;5099277;27;20104;-85
2022/11/11 11:56:51;;;;;;;0.40;0.30;;;15.90;66.80;;;;;;5102264;28;20027;-85
2022/11/11 11:59:32;;;;;;;2.88;0.70;;;15.90;72.00;;;;;;5097750;28;20511;-85
2022/11/11 12:02:43;;;;;;;0.38;0.38;;;15.90;61.60;;;;;;5089243;28;20055;-85
2022/11/11 12:05:48;;;;;;;0.65;0.50;;;15.90;66.90;;;;;;5105079;28;20403;-85
2022/11/11 12:08:42;;;;;;;1.85;0.60;;;15.90;69.00;;;;;;5098231;28;20044;-86
2022/11/11 12:11:24;;;;;;;0.75;0.40;;;16.00;61.20;;;;;;5102390;28;20032;-85
2022/11/11 12:14:15;;;;;;;0.57;0.50;;;16.00;60.30;;;;;;5095651;28;20381;-86
2022/11/11 12:16:54;;;;;;;1.85;0.60;;;16.10;56.30;;;;;;5099519;28;20122;-87
2022/11/11 12:19:38;;;;;;;1.38;0.40;;;16.20;55.30;;;;;;5084639;28;20036;-82
2022/11/11 12:22:25;;;;;;;2.38;0.60;;;16.20;58.80;;;;;;5103235;28;20047;-84
2022/11/11 12:24:50;;;;;;;0.63;0.30;;;16.10;58.40;;;;;;5099073;28;20123;-86
2022/11/11 12:27:56;;;;;;;2.55;0.40;;;16.00;58.40;;;;;;5106422;28;20456;-85
2022/11/11 12:30:27;;;;;;;0.57;0.30;;;16.00;59.10;;;;;;5096858;28;20028;-84
2022/11/11 12:33:08;;;;;;;0.75;0.32;;;16.00;59.50;;;;;;5096833;28;20757;-86
2022/11/11 12:36:06;;;;;;;1.05;0.43;;;16.00;58.70;;;;;;5095934;28;20031;-86
2022/11/11 12:38:43;;;;;;;3.45;0.73;;;16.00;56.80;;;;;;5093774;28;20035;-85
2022/11/11 12:41:12;;;;;;;4.50;0.50;;;16.10;57.10;;;;;;5101776;28;20027;-85
2022/11/11 12:44:06;;;;;;;0.63;0.40;;;16.10;55.90;;;;;;5102477;28;20072;-85
2022/11/11 12:47:19;;;;;;;0.60;0.40;;;16.20;55.10;;;;;;5096585;28;20039;-85
2022/11/11 12:49:54;;;;;;;2.22;0.60;;;16.20;55.90;;;;;;5099056;28;20032;-86
2022/11/11 12:52:35;;;;;;;0.57;0.50;;;16.30;52.80;;;;;;5103455;28;20042;-84
2022/11/11 12:55:31;;;;;;;3.65;0.45;;;16.40;52.30;;;;;;5098990;28;20442;-85
2022/11/11 12:58:38;;;;;;;2.20;0.80;;;16.50;54.10;;;;;;5101786;28;20031;-84
2022/11/11 13:01:28;;;;;;;1.05;0.60;;;16.50;52.50;;;;;;5078676;28;20028;-84
2022/11/11 13:04:08;;;;;;;0.52;0.45;;;16.60;49.70;;;;;;5092620;28;20506;-84
2022/11/11 13:06:53;;;;;;;4.45;0.65;;;16.60;50.40;;;;;;5100706;27;20020;-84
2022/11/11 13:09:50;;;;;;;0.40;0.40;;;16.60;51.40;;;;;;5095791;27;20407;-84
2022/11/11 13:12:33;;;;;;;2.40;0.47;;;16.60;49.60;;;;;;5097398;28;20576;-85
2022/11/11 13:15:10;;;;;;;3.72;0.45;;;16.60;50.40;;;;;;5094280;27;20473;-83
2022/11/11 13:17:36;;;;;;;1.25;0.63;;;16.70;50.50;;;;;;5096900;28;20391;-84
2022/11/11 13:20:43;;;;;;;1.85;0.77;;;16.70;48.80;;;;;;5098283;28;22188;-85
2022/11/11 13:23:09;;;;;;;;;;;16.70;48.40;;;;;;5071721;28;20044;-85
2022/11/11 13:25:38;;;;;;;2.75;0.60;;;16.70;48.90;;;;;;5096786;28;19907;-85
2022/11/11 13:28:17;;;;;;;1.10;0.60;;;16.60;50.00;;;;;;5100876;28;20035;-83
2022/11/11 13:30:45;;;;;;;6.75;0.75;;;16.60;49.20;;;;;;5092189;28;20462;-85
2022/11/11 13:33:36;;;;;;;0.80;0.52;;;16.60;48.80;;;;;;5098416;28;20042;-84
2022/11/11 13:36:04;;;;;;;4.38;0.75;;;16.60;48.60;;;;;;5083873;28;20081;-85
2022/11/11 13:38:32;;;;;;;3.75;0.77;;;16.60;48.30;;;;;;5091717;28;20024;-89
2022/11/11 13:41:04;;;;;;;2.05;0.43;;;16.70;49.40;;;;;;5098301;28;20034;-85
2022/11/11 13:43:35;;;;;;;0.80;0.57;;;16.60;48.40;;;;;;5098174;28;20063;-85
2022/11/11 13:46:04;;;;;;;0.55;0.55;;;16.60;49.40;;;;;;5091802;28;20015;-85
2022/11/11 13:48:35;;;;;;;1.10;0.70;;;16.50;48.60;;;;;;5093105;28;20135;-87
2022/11/11 13:51:19;;;;;;;1.25;0.68;;;16.50;49.30;;;;;;5092171;28;20065;-85
2022/11/11 13:53:46;;;;;;;3.05;0.70;;;16.50;49.70;;;;;;5098023;28;20034;-84
2022/11/11 13:56:40;;;;;;;3.40;0.77;;;16.50;48.80;;;;;;5095566;28;20024;-85
2022/11/11 13:59:07;;;;;;;2.75;0.63;;;16.40;48.80;;;;;;5098724;28;20043;-85
2022/11/11 14:01:39;;;;;;;2.08;0.55;;;16.40;49.10;;;;;;5096260;28;20110;-85
2022/11/11 14:04:10;;;;;;;3.08;0.60;;;16.30;48.90;;;;;;5100840;28;20053;-83
2022/11/11 14:06:48;;;;;;;2.53;0.68;;;16.30;49.10;;;;;;5092340;28;20056;-85
2022/11/11 14:09:53;;;;;;;1.15;0.68;;;16.30;50.30;;;;;;5096844;28;20531;-82
2022/11/11 14:12:21;;;;;;;1.80;0.75;;;16.20;50.00;;;;;;5089687;28;20043;-84
2022/11/11 14:14:55;;;;;;;1.23;0.68;;;16.10;50.80;;;;;;5098049;28;20027;-84
2022/11/11 14:17:22;;;;;;;1.13;0.60;;;16.00;50.20;;;;;;5093810;28;20026;-84
2022/11/11 14:19:47;;;;;;;7.13;1.27;;;15.90;51.70;;;;;;5103253;28;20032;-85
2022/11/11 14:22:42;;;;;;;5.10;0.52;;;15.90;51.30;;;;;;5096865;28;20100;-84